Time;durP1;ratioP1;P1;durP2;ratioP2;P2;SDS_P1;SDS_P2;PMS_P1;PMS_P2;Temp;Humidity;BMP_temperature;BMP_pressure;BME280_temperature;BME280_humidity;BME280_pressure;Samples;Min_cycle;Max_cycle;Signal;HPM_P1;HPM_P2
2023/05/01 00:01:08;;;;;;;7.18;3.70;;;10.00;99.90;;;;;;5017183;28;20278;-72
2023/05/01 00:03:34;;;;;;;9.33;3.40;;;10.00;99.90;;;;;;5011940;28;20621;-72
2023/05/01 00:06:04;;;;;;;5.85;3.10;;;10.00;99.90;;;;;;5015296;28;20064;-72
2023/05/01 00:08:30;;;;;;;7.05;3.45;;;10.00;99.90;;;;;;5032646;28;20138;-72
2023/05/01 00:10:56;;;;;;;6.55;3.63;;;9.90;99.90;;;;;;5019726;28;20137;-72
2023/05/01 00:13:23;;;;;;;5.95;2.78;;;9.90;99.90;;;;;;5022709;28;20238;-72
2023/05/01 00:15:50;;;;;;;8.32;3.55;;;9.90;99.90;;;;;;5046234;23;20409;-69
2023/05/01 00:18:15;;;;;;;7.72;3.10;;;9.90;99.90;;;;;;5054132;28;20090;-69
2023/05/01 00:20:43;;;;;;;8.40;3.53;;;9.90;99.90;;;;;;5035554;28;20460;-69
2023/05/01 00:23:11;;;;;;;5.68;3.33;;;9.80;99.90;;;;;;5057786;28;20555;-69
2023/05/01 00:25:37;;;;;;;8.10;3.47;;;9.80;99.90;;;;;;5031213;28;20041;-68
2023/05/01 00:28:04;;;;;;;5.57;3.13;;;9.80;99.90;;;;;;5045163;28;20177;-69
2023/05/01 00:30:32;;;;;;;9.55;3.45;;;9.80;99.90;;;;;;5037091;28;20044;-69
2023/05/01 00:32:58;;;;;;;6.45;3.53;;;9.80;99.90;;;;;;5046912;28;20041;-69
2023/05/01 00:35:24;;;;;;;7.95;3.08;;;9.80;99.90;;;;;;5037108;28;20055;-70
2023/05/01 00:37:52;;;;;;;5.82;3.75;;;9.80;99.90;;;;;;5042761;28;20048;-69
2023/05/01 00:40:18;;;;;;;8.90;3.27;;;9.70;99.90;;;;;;5020066;28;20037;-69
2023/05/01 00:42:44;;;;;;;9.73;3.30;;;9.70;99.90;;;;;;5026653;28;20056;-69
2023/05/01 00:45:13;;;;;;;8.65;3.60;;;9.70;99.90;;;;;;5051041;28;20067;-69
2023/05/01 00:47:39;;;;;;;5.88;2.92;;;9.70;99.90;;;;;;5022699;28;20055;-69
2023/05/01 00:50:06;;;;;;;10.15;3.88;;;9.70;99.90;;;;;;5016251;28;20037;-69
2023/05/01 00:52:32;;;;;;;9.45;3.35;;;9.70;99.90;;;;;;5040724;28;20045;-69
2023/05/01 00:54:58;;;;;;;9.40;4.13;;;9.60;99.90;;;;;;5032685;28;20055;-69
2023/05/01 00:57:24;;;;;;;4.50;2.70;;;9.60;99.90;;;;;;5041445;28;20547;-69
2023/05/01 00:59:49;;;;;;;7.82;3.00;;;9.60;99.90;;;;;;5057503;28;20036;-69
2023/05/01 01:02:15;;;;;;;9.10;3.47;;;9.60;99.90;;;;;;5033551;28;20041;-69
2023/05/01 01:04:43;;;;;;;6.00;3.47;;;9.60;99.90;;;;;;5037451;28;20289;-69
2023/05/01 01:07:22;;;;;;;9.60;3.20;;;9.60;99.90;;;;;;5056778;28;20277;-69
2023/05/01 01:09:56;;;;;;;7.00;3.60;;;9.60;99.90;;;;;;5049838;28;20048;-69
2023/05/01 01:12:27;;;;;;;;;;;9.50;99.90;;;;;;5051311;28;20044;-69
2023/05/01 01:15:29;;;;;;;8.75;3.25;;;9.50;99.90;;;;;;5049389;28;19967;-69
2023/05/01 01:18:11;;;;;;;5.78;3.13;;;9.50;99.90;;;;;;5054929;28;20044;-69
2023/05/01 01:20:56;;;;;;;6.93;3.42;;;9.50;99.90;;;;;;5049401;28;20032;-69
2023/05/01 01:23:52;;;;;;;8.10;3.55;;;9.40;99.90;;;;;;5036612;28;20044;-70
2023/05/01 01:26:36;;;;;;;7.35;3.08;;;9.40;99.90;;;;;;5047327;28;20537;-70
2023/05/01 01:29:22;;;;;;;5.28;3.10;;;9.40;99.90;;;;;;5011968;28;20046;-69
2023/05/01 01:32:21;;;;;;;5.65;3.00;;;9.40;99.90;;;;;;5035521;28;20131;-69
2023/05/01 01:34:51;;;;;;;4.57;3.17;;;9.30;99.90;;;;;;5036424;28;20130;-69
2023/05/01 01:37:29;;;;;;;6.72;3.75;;;9.30;99.90;;;;;;5035462;28;20135;-69
2023/05/01 01:40:15;;;;;;;5.68;3.10;;;9.30;99.90;;;;;;5018095;28;20044;-69
2023/05/01 01:43:11;;;;;;;7.22;3.08;;;9.20;99.90;;;;;;5035302;28;20421;-69
2023/05/01 01:45:42;;;;;;;11.48;3.53;;;9.20;99.90;;;;;;5017229;28;20055;-69
2023/05/01 01:48:12;;;;;;;7.40;2.58;;;9.20;99.90;;;;;;5035320;28;20090;-69
2023/05/01 01:50:39;;;;;;;4.72;3.00;;;9.20;99.90;;;;;;5036544;28;20238;-69
2023/05/01 01:53:07;;;;;;;6.47;3.28;;;9.10;99.90;;;;;;5036174;28;20044;-69
2023/05/01 01:55:36;;;;;;;6.63;3.38;;;9.20;99.90;;;;;;5036758;28;20335;-69
2023/05/01 01:58:04;;;;;;;8.57;3.30;;;9.10;99.90;;;;;;5035006;28;20071;-69
2023/05/01 02:00:34;;;;;;;7.50;3.30;;;9.10;99.90;;;;;;5033763;28;20039;-69
2023/05/01 02:03:02;;;;;;;5.80;3.05;;;9.10;99.90;;;;;;5013916;28;20052;-69
2023/05/01 02:05:30;;;;;;;5.90;3.20;;;9.10;99.90;;;;;;5019920;28;20149;-70
2023/05/01 02:07:57;;;;;;;6.53;3.03;;;9.10;99.90;;;;;;5030627;28;20033;-69
2023/05/01 02:10:28;;;;;;;7.18;3.20;;;9.00;99.90;;;;;;5039722;28;20189;-69
2023/05/01 02:12:56;;;;;;;6.80;3.13;;;9.00;99.90;;;;;;5037110;28;20039;-69
2023/05/01 02:15:23;;;;;;;4.93;2.88;;;9.00;99.90;;;;;;5055896;28;20457;-69
2023/05/01 02:17:50;;;;;;;;;;;9.00;99.90;;;;;;5031641;28;20059;-69
2023/05/01 02:20:16;;;;;;;9.07;2.85;;;9.00;99.90;;;;;;5038038;28;19959;-69
2023/05/01 02:22:46;;;;;;;6.10;2.58;;;9.00;99.90;;;;;;5053256;28;20037;-69
2023/05/01 02:25:13;;;;;;;5.70;2.97;;;8.90;99.90;;;;;;5022325;28;20395;-69
2023/05/01 02:27:56;;;;;;;4.20;2.85;;;9.00;99.90;;;;;;5060174;28;20044;-69
2023/05/01 02:30:22;;;;;;;5.97;2.90;;;9.00;99.90;;;;;;5039177;28;20358;-69
2023/05/01 02:32:47;;;;;;;8.17;3.73;;;8.90;99.90;;;;;;5021341;28;20500;-70
2023/05/01 02:35:13;;;;;;;8.23;3.30;;;8.90;99.90;;;;;;5032828;28;20338;-69
2023/05/01 02:37:39;;;;;;;5.80;2.80;;;8.90;99.90;;;;;;5036796;28;20318;-69
2023/05/01 02:40:06;;;;;;;6.78;2.63;;;8.90;99.90;;;;;;5040457;28;20449;-69
2023/05/01 02:42:37;;;;;;;7.78;3.70;;;8.90;99.90;;;;;;5017205;28;20070;-69
2023/05/01 02:45:08;;;;;;;5.25;2.92;;;8.90;99.90;;;;;;5050623;28;20155;-69
2023/05/01 02:47:38;;;;;;;10.38;3.38;;;8.80;99.90;;;;;;5059578;28;20159;-69
2023/05/01 02:50:06;;;;;;;6.72;3.30;;;8.80;99.90;;;;;;5050508;28;20166;-69
2023/05/01 02:52:33;;;;;;;7.68;3.00;;;8.80;99.90;;;;;;5036679;28;20465;-69
2023/05/01 02:54:59;;;;;;;8.68;3.40;;;8.80;99.90;;;;;;5040562;28;20102;-69
2023/05/01 02:57:25;;;;;;;5.28;3.00;;;8.80;99.90;;;;;;5061359;28;20040;-69
2023/05/01 02:59:51;;;;;;;6.77;2.73;;;8.70;99.90;;;;;;5021094;28;20518;-69
2023/05/01 03:02:16;;;;;;;8.00;3.50;;;8.70;99.90;;;;;;5037824;28;20056;-69
2023/05/01 03:04:42;;;;;;;5.05;2.95;;;8.70;99.90;;;;;;5037514;28;20032;-71
2023/05/01 03:07:08;;;;;;;7.15;3.17;;;8.70;99.90;;;;;;5042410;28;20044;-70
2023/05/01 03:09:37;;;;;;;9.68;3.35;;;8.70;99.90;;;;;;5040986;28;20585;-70
2023/05/01 03:12:04;;;;;;;7.15;3.08;;;8.70;99.90;;;;;;5049746;28;20079;-70
2023/05/01 03:14:30;;;;;;;7.38;3.40;;;8.70;99.90;;;;;;5042389;28;20138;-69
2023/05/01 03:16:57;;;;;;;5.77;3.43;;;8.70;99.90;;;;;;5022282;28;20167;-70
2023/05/01 03:19:22;;;;;;;;;;;8.70;99.90;;;;;;5021381;28;20413;-70
2023/05/01 03:21:48;;;;;;;9.15;3.00;;;8.60;99.90;;;;;;5035390;28;19940;-70
2023/05/01 03:24:13;;;;;;;8.93;3.03;;;8.60;99.90;;;;;;5051293;28;20498;-70
2023/05/01 03:26:39;;;;;;;6.77;3.20;;;8.60;99.90;;;;;;5035801;28;20042;-69
2023/05/01 03:29:05;;;;;;;7.63;3.20;;;8.60;99.90;;;;;;5040876;28;20075;-70
2023/05/01 03:31:30;;;;;;;7.67;3.20;;;8.50;99.90;;;;;;5035519;28;20447;-69
2023/05/01 03:33:56;;;;;;;5.93;2.90;;;8.60;99.90;;;;;;5021332;28;20041;-70
2023/05/01 03:36:22;;;;;;;9.70;3.17;;;8.50;99.90;;;;;;5044194;28;20041;-69
2023/05/01 03:38:47;;;;;;;9.18;2.95;;;8.50;99.90;;;;;;5058398;28;20083;-70
2023/05/01 03:41:13;;;;;;;7.17;3.80;;;8.40;99.90;;;;;;5041367;28;20502;-70
2023/05/01 03:43:41;;;;;;;9.57;4.27;;;8.40;99.90;;;;;;5022203;28;20048;-70
2023/05/01 03:46:09;;;;;;;7.05;3.28;;;8.40;99.90;;;;;;5054203;28;20171;-69
2023/05/01 03:48:34;;;;;;;7.72;2.70;;;8.40;99.90;;;;;;5041167;28;20086;-70
2023/05/01 03:51:03;;;;;;;7.27;3.30;;;8.40;99.90;;;;;;5042883;28;20460;-70
2023/05/01 03:53:28;;;;;;;10.07;3.25;;;8.30;99.90;;;;;;5050253;28;20301;-70
2023/05/01 03:55:54;;;;;;;7.67;2.83;;;8.30;99.90;;;;;;5038873;28;20036;-69
2023/05/01 03:58:21;;;;;;;6.50;3.13;;;8.30;99.90;;;;;;5041171;28;20489;-70
2023/05/01 04:00:46;;;;;;;;;;;8.20;99.90;;;;;;5057491;28;20070;-70
2023/05/01 04:03:14;;;;;;;6.85;3.28;;;8.20;99.90;;;;;;5037281;28;19986;-70
2023/05/01 04:05:40;;;;;;;5.30;3.03;;;8.20;99.90;;;;;;5038596;28;20055;-69
2023/05/01 04:08:06;;;;;;;7.93;3.80;;;8.10;99.90;;;;;;5034902;28;20048;-70
2023/05/01 04:10:31;;;;;;;5.60;3.00;;;8.10;99.90;;;;;;5057941;28;20525;-70
2023/05/01 04:12:57;;;;;;;6.10;3.10;;;8.10;99.90;;;;;;5033422;28;20587;-70
2023/05/01 04:15:23;;;;;;;7.03;3.07;;;8.10;99.90;;;;;;5036068;28;20804;-70
2023/05/01 04:17:48;;;;;;;8.10;3.70;;;8.00;99.90;;;;;;5040815;28;20037;-70
2023/05/01 04:20:18;;;;;;;6.32;3.47;;;8.10;99.90;;;;;;5031704;28;20056;-70
2023/05/01 04:22:43;;;;;;;6.22;3.00;;;8.00;99.90;;;;;;5015714;28;20060;-70
2023/05/01 04:25:09;;;;;;;5.97;3.27;;;8.00;99.90;;;;;;5039666;28;20401;-70
2023/05/01 04:27:35;;;;;;;7.20;3.10;;;8.00;99.90;;;;;;5017056;28;20064;-70
2023/05/01 04:30:00;;;;;;;6.87;2.87;;;8.00;99.90;;;;;;5040264;28;20083;-70
2023/05/01 04:32:26;;;;;;;4.90;2.57;;;8.00;99.90;;;;;;5051972;28;20086;-70
2023/05/01 04:34:52;;;;;;;13.30;3.30;;;8.10;99.90;;;;;;5052204;28;20071;-70
2023/05/01 04:37:18;;;;;;;10.45;3.85;;;8.00;99.90;;;;;;5037345;28;20041;-70
2023/05/01 04:39:44;;;;;;;7.85;3.05;;;8.10;99.90;;;;;;5041256;28;20159;-70
2023/05/01 04:42:09;;;;;;;7.85;2.70;;;8.10;99.90;;;;;;5037130;28;20032;-70
2023/05/01 04:44:36;;;;;;;8.13;3.42;;;8.10;99.90;;;;;;5040137;28;20056;-70
2023/05/01 04:47:05;;;;;;;6.30;3.20;;;8.10;99.90;;;;;;5049685;28;20052;-69
2023/05/01 04:49:31;;;;;;;6.93;3.25;;;8.10;99.90;;;;;;5058840;28;20045;-70
2023/05/01 04:51:57;;;;;;;7.57;3.22;;;8.20;99.90;;;;;;5034283;28;20303;-70
2023/05/01 04:54:23;;;;;;;5.67;2.87;;;8.20;99.90;;;;;;5023693;28;20287;-70
2023/05/01 04:56:49;;;;;;;11.52;3.20;;;8.20;99.90;;;;;;5057897;28;20044;-70
2023/05/01 04:59:16;;;;;;;8.57;3.30;;;8.30;99.90;;;;;;5031525;28;20071;-70
2023/05/01 05:01:41;;;;;;;5.85;3.30;;;8.30;99.90;;;;;;5035859;28;20048;-69
2023/05/01 05:04:07;;;;;;;8.80;3.30;;;8.40;99.90;;;;;;5007675;28;20473;-70
2023/05/01 05:06:33;;;;;;;5.90;3.43;;;8.50;99.90;;;;;;5036046;28;20047;-70
2023/05/01 05:08:59;;;;;;;8.13;3.57;;;8.40;99.90;;;;;;5034122;28;20064;-70
2023/05/01 05:11:25;;;;;;;5.80;3.50;;;8.50;99.90;;;;;;5035441;28;20109;-70
2023/05/01 05:13:53;;;;;;;7.40;3.40;;;8.60;99.90;;;;;;5052415;28;20505;-70
2023/05/01 05:16:19;;;;;;;7.30;3.20;;;8.60;99.90;;;;;;5040292;28;20479;-70
2023/05/01 05:18:44;;;;;;;11.13;3.40;;;8.70;99.90;;;;;;5054671;28;20129;-69
2023/05/01 05:21:10;;;;;;;7.03;3.20;;;8.70;99.90;;;;;;5032042;28;20448;-70
2023/05/01 05:23:36;;;;;;;9.93;3.47;;;8.80;99.90;;;;;;5034342;28;20036;-70
2023/05/01 05:26:02;;;;;;;11.10;2.95;;;8.80;99.90;;;;;;5054323;28;20324;-70
2023/05/01 05:28:28;;;;;;;7.72;3.17;;;8.90;99.90;;;;;;5051946;28;20041;-70
2023/05/01 05:30:55;;;;;;;5.38;3.08;;;8.90;99.90;;;;;;5051630;28;20130;-71
2023/05/01 05:33:21;;;;;;;9.82;2.97;;;8.90;99.90;;;;;;5039085;28;20048;-69
2023/05/01 05:35:48;;;;;;;7.63;3.20;;;8.90;99.90;;;;;;5036016;28;20079;-70
2023/05/01 05:38:14;;;;;;;6.03;3.25;;;9.00;99.90;;;;;;5038733;28;20572;-70
2023/05/01 05:40:40;;;;;;;;;;;9.00;99.90;;;;;;5025054;28;20123;-70
2023/05/01 05:43:06;;;;;;;8.95;3.85;;;9.00;99.90;;;;;;5018529;28;19955;-70
2023/05/01 05:45:35;;;;;;;7.70;3.07;;;9.00;99.90;;;;;;5051056;28;20040;-71
2023/05/01 05:48:01;;;;;;;8.20;4.22;;;9.10;99.90;;;;;;5036610;28;20068;-74
2023/05/01 05:50:27;;;;;;;6.20;3.60;;;9.10;99.90;;;;;;5026785;28;20451;-75
2023/05/01 05:52:52;;;;;;;9.48;3.88;;;9.30;99.90;;;;;;5029372;28;20040;-75
2023/05/01 05:55:18;;;;;;;8.23;3.43;;;9.20;99.90;;;;;;5065290;28;20087;-69
2023/05/01 05:57:44;;;;;;;7.07;4.33;;;9.30;99.90;;;;;;5036363;28;20059;-70
2023/05/01 06:00:10;;;;;;;9.40;3.93;;;9.30;99.90;;;;;;5038794;28;20883;-70
2023/05/01 06:02:35;;;;;;;8.98;3.65;;;9.40;99.90;;;;;;5052408;28;20067;-70
2023/05/01 06:05:02;;;;;;;8.00;4.03;;;9.40;99.90;;;;;;5037611;28;20079;-70
2023/05/01 06:07:27;;;;;;;7.22;3.85;;;9.40;99.90;;;;;;5051890;28;20036;-70
2023/05/01 06:09:53;;;;;;;10.47;4.30;;;9.50;99.90;;;;;;5044074;28;20044;-70
2023/05/01 06:12:19;;;;;;;9.23;3.63;;;9.60;99.90;;;;;;5037361;28;20052;-70
2023/05/01 06:14:45;;;;;;;7.00;3.47;;;9.50;99.90;;;;;;5043848;22;20386;-71
2023/05/01 06:17:10;;;;;;;11.77;4.00;;;9.60;99.90;;;;;;5004292;28;20036;-71
2023/05/01 06:19:36;;;;;;;11.38;3.40;;;9.60;99.90;;;;;;5019799;28;20071;-71
2023/05/01 06:22:02;;;;;;;7.03;3.60;;;9.70;99.90;;;;;;5023914;28;20048;-71
2023/05/01 06:24:28;;;;;;;7.47;3.70;;;9.70;99.90;;;;;;5019030;28;20210;-71
2023/05/01 06:26:53;;;;;;;7.97;3.87;;;9.80;99.90;;;;;;5040807;28;20049;-72
2023/05/01 06:29:19;;;;;;;8.73;3.87;;;9.80;99.90;;;;;;5025192;28;20798;-72
2023/05/01 06:31:45;;;;;;;9.77;3.53;;;9.90;99.90;;;;;;5012207;28;20037;-72
2023/05/01 06:34:13;;;;;;;7.75;3.60;;;9.90;99.90;;;;;;5033949;28;20045;-72
2023/05/01 06:36:39;;;;;;;7.05;3.50;;;9.90;99.90;;;;;;5016186;28;20033;-72
2023/05/01 06:39:05;;;;;;;7.50;3.20;;;10.00;99.90;;;;;;5023666;28;20048;-72
2023/05/01 06:41:31;;;;;;;8.77;3.80;;;10.10;99.90;;;;;;5019995;28;20121;-72
2023/05/01 06:43:57;;;;;;;6.47;3.53;;;10.10;99.90;;;;;;5024148;28;20077;-71
2023/05/01 06:46:23;;;;;;;6.80;3.83;;;10.20;99.90;;;;;;5024458;28;20075;-72
2023/05/01 06:48:48;;;;;;;8.57;3.70;;;10.20;99.90;;;;;;5018810;28;20038;-72
2023/05/01 06:51:14;;;;;;;7.80;4.17;;;10.30;99.90;;;;;;5022442;28;20407;-71
2023/05/01 06:53:40;;;;;;;6.47;3.65;;;10.30;99.90;;;;;;5019608;28;20049;-72
2023/05/01 06:56:07;;;;;;;6.53;3.30;;;10.40;99.90;;;;;;5018910;28;20412;-71
2023/05/01 06:58:34;;;;;;;6.90;3.20;;;10.50;99.90;;;;;;5028334;28;20357;-73
2023/05/01 07:01:00;;;;;;;7.82;3.80;;;10.60;99.90;;;;;;5023392;28;20053;-71
2023/05/01 07:03:26;;;;;;;10.60;3.73;;;10.60;99.90;;;;;;5018502;28;20047;-74
2023/05/01 07:05:53;;;;;;;8.80;3.47;;;10.70;99.90;;;;;;5036037;28;20048;-72
2023/05/01 07:08:19;;;;;;;8.98;3.45;;;10.80;99.90;;;;;;5043237;28;20037;-71
2023/05/01 07:10:45;;;;;;;9.27;3.80;;;10.80;99.90;;;;;;5050590;28;20424;-72
2023/05/01 07:13:10;;;;;;;9.27;3.42;;;10.90;99.90;;;;;;5022413;28;20564;-71
2023/05/01 07:15:36;;;;;;;6.50;3.53;;;10.90;99.90;;;;;;5020370;28;20045;-71
2023/05/01 07:18:04;;;;;;;10.82;4.20;;;11.00;99.90;;;;;;5026707;28;20636;-73
2023/05/01 07:20:31;;;;;;;11.02;4.63;;;11.10;99.90;;;;;;5013630;28;20045;-71
2023/05/01 07:22:57;;;;;;;9.82;3.40;;;11.20;99.90;;;;;;5020932;28;20041;-72
2023/05/01 07:25:23;;;;;;;6.60;3.10;;;11.20;99.90;;;;;;5023829;28;20041;-72
2023/05/01 07:27:49;;;;;;;9.40;3.92;;;11.30;99.90;;;;;;5021895;28;20044;-72
2023/05/01 07:30:15;;;;;;;5.85;3.00;;;11.40;99.90;;;;;;5024443;28;20418;-72
2023/05/01 07:32:41;;;;;;;7.13;3.42;;;11.50;99.90;;;;;;5006345;28;20127;-72
2023/05/01 07:35:07;;;;;;;12.23;3.47;;;11.60;99.90;;;;;;5021288;28;20048;-72
2023/05/01 07:37:32;;;;;;;7.20;3.60;;;11.70;99.90;;;;;;5023379;28;20053;-72
2023/05/01 07:39:58;;;;;;;5.70;3.40;;;11.80;99.90;;;;;;5025419;28;20166;-72
2023/05/01 07:42:28;;;;;;;8.63;3.45;;;11.90;99.90;;;;;;5022239;28;20465;-72
2023/05/01 07:44:54;;;;;;;6.70;2.90;;;12.00;99.90;;;;;;5020737;28;20562;-72
2023/05/01 07:47:19;;;;;;;6.13;3.43;;;12.10;99.90;;;;;;5009867;28;20156;-73
2023/05/01 07:49:45;;;;;;;7.80;3.10;;;12.20;99.90;;;;;;5005429;28;20671;-72
2023/05/01 07:52:11;;;;;;;5.80;2.77;;;12.30;99.90;;;;;;5027554;28;20055;-72
2023/05/01 07:54:36;;;;;;;8.43;2.87;;;12.30;99.90;;;;;;5029230;28;20057;-72
2023/05/01 07:57:04;;;;;;;7.17;3.10;;;12.40;99.90;;;;;;5036935;28;20491;-72
2023/05/01 07:59:30;;;;;;;9.35;3.30;;;12.50;99.90;;;;;;5015005;28;20033;-72
2023/05/01 08:01:56;;;;;;;5.07;2.77;;;12.50;99.90;;;;;;5021804;28;20037;-72
2023/05/01 08:04:22;;;;;;;5.00;2.72;;;12.60;99.90;;;;;;5040477;28;20277;-72
2023/05/01 08:06:50;;;;;;;6.07;2.70;;;12.70;99.90;;;;;;5025591;28;20038;-72
2023/05/01 08:09:16;;;;;;;6.85;2.70;;;12.80;99.90;;;;;;4997777;28;20053;-72
2023/05/01 08:11:42;;;;;;;8.32;2.55;;;12.80;99.90;;;;;;5025530;28;20041;-72
2023/05/01 08:14:08;;;;;;;4.95;2.67;;;12.90;99.90;;;;;;5019757;28;20036;-72
2023/05/01 08:16:34;;;;;;;7.43;2.57;;;13.00;99.90;;;;;;5026110;28;20045;-72
2023/05/01 08:19:00;;;;;;;5.28;2.28;;;13.10;99.90;;;;;;5028202;28;20289;-72
2023/05/01 08:21:25;;;;;;;7.50;2.47;;;13.20;99.90;;;;;;5017907;28;20044;-72
2023/05/01 08:23:54;;;;;;;5.93;2.50;;;13.30;99.90;;;;;;5025022;28;20046;-72
2023/05/01 08:26:20;;;;;;;4.63;1.85;;;13.30;99.90;;;;;;5016270;28;20045;-72
2023/05/01 08:28:46;;;;;;;3.92;2.42;;;13.40;99.90;;;;;;5017496;28;20175;-72
2023/05/01 08:31:12;;;;;;;;;;;13.50;99.90;;;;;;5024636;28;20486;-72
2023/05/01 08:33:40;;;;;;;4.65;1.50;;;13.60;99.90;;;;;;5002454;28;19923;-72
2023/05/01 08:36:07;;;;;;;4.38;1.77;;;13.70;99.90;;;;;;5023834;28;20131;-72
2023/05/01 08:38:32;;;;;;;6.05;2.15;;;13.80;99.90;;;;;;5026829;28;20056;-72
2023/05/01 08:41:00;;;;;;;4.70;2.00;;;13.90;99.90;;;;;;5016119;28;20041;-72
2023/05/01 08:43:28;;;;;;;5.35;2.10;;;14.00;99.90;;;;;;5015752;28;20370;-72
2023/05/01 08:45:57;;;;;;;5.43;1.98;;;14.20;99.90;;;;;;5021185;28;20044;-72
2023/05/01 08:48:24;;;;;;;4.85;2.35;;;14.20;99.90;;;;;;5042083;28;20041;-72
2023/05/01 08:50:53;;;;;;;5.18;2.53;;;14.40;99.90;;;;;;5037809;28;20095;-72
2023/05/01 08:53:22;;;;;;;7.07;1.90;;;14.40;99.90;;;;;;5019120;28;20204;-72
2023/05/01 08:55:49;;;;;;;4.25;1.83;;;14.60;99.90;;;;;;5020895;28;20045;-72
2023/05/01 08:58:17;;;;;;;5.20;1.63;;;14.70;99.90;;;;;;5007886;28;20688;-72
2023/05/01 09:00:44;;;;;;;3.33;1.73;;;14.70;99.90;;;;;;5022831;28;20045;-72
2023/05/01 09:03:12;;;;;;;3.38;1.55;;;14.80;99.90;;;;;;5011563;28;20052;-72
2023/05/01 09:05:38;;;;;;;5.38;1.50;;;15.00;99.90;;;;;;5036822;28;20033;-71
2023/05/01 09:08:03;;;;;;;4.80;1.55;;;15.10;99.90;;;;;;5029550;28;20098;-71
2023/05/01 09:10:31;;;;;;;5.18;1.63;;;15.20;99.90;;;;;;5023970;28;20052;-71
2023/05/01 09:13:00;;;;;;;4.82;1.33;;;15.30;99.90;;;;;;5027514;28;20049;-71
2023/05/01 09:15:27;;;;;;;6.68;1.45;;;15.40;99.90;;;;;;5022683;28;20053;-76
2023/05/01 09:17:54;;;;;;;3.00;1.40;;;15.60;99.90;;;;;;5028744;28;20065;-71
2023/05/01 09:20:19;;;;;;;2.78;1.25;;;15.70;99.90;;;;;;5012503;28;20123;-71
2023/05/01 09:22:45;;;;;;;6.75;1.75;;;15.90;99.90;;;;;;5039847;28;20135;-71
2023/05/01 09:25:11;;;;;;;2.83;1.30;;;16.00;99.90;;;;;;5023474;28;20048;-71
2023/05/01 09:27:37;;;;;;;4.32;1.65;;;16.10;99.90;;;;;;5039943;28;20120;-71
2023/05/01 09:30:05;;;;;;;4.00;1.38;;;16.20;99.90;;;;;;4999296;28;20053;-71
2023/05/01 09:32:31;;;;;;;3.80;1.35;;;16.30;99.90;;;;;;5036127;28;20494;-71
2023/05/01 09:35:13;;;;;;;3.65;1.45;;;16.40;99.90;;;;;;5023526;28;20094;-71
2023/05/01 09:37:40;;;;;;;5.38;1.25;;;16.40;99.90;;;;;;5022652;28;20136;-71
2023/05/01 09:40:07;;;;;;;6.95;1.83;;;16.50;99.90;;;;;;5024704;28;20114;-71
2023/05/01 09:42:35;;;;;;;3.45;1.17;;;16.60;99.90;;;;;;5019997;28;20049;-71
2023/05/01 09:45:03;;;;;;;4.22;1.38;;;16.70;99.90;;;;;;5026095;28;20183;-71
2023/05/01 09:47:29;;;;;;;2.88;1.23;;;16.70;99.90;;;;;;5020939;28;20049;-71
2023/05/01 09:49:58;;;;;;;2.88;1.20;;;16.80;99.90;;;;;;5025120;28;20059;-71
2023/05/01 09:52:32;;;;;;;5.53;1.33;;;16.90;99.80;;;;;;5032446;28;20046;-71
2023/05/01 09:55:17;;;;;;;8.00;1.50;;;16.90;99.60;;;;;;5030331;28;20107;-71
2023/05/01 09:57:45;;;;;;;2.72;1.52;;;17.00;97.40;;;;;;5017361;28;20048;-72
2023/05/01 10:00:13;;;;;;;3.92;1.45;;;17.00;98.60;;;;;;5022339;28;20071;-71
2023/05/01 10:02:40;;;;;;;4.53;1.42;;;17.20;98.60;;;;;;5019998;28;20043;-72
2023/05/01 10:05:08;;;;;;;4.78;1.30;;;17.20;98.80;;;;;;5021928;28;20391;-72
2023/05/01 10:07:33;;;;;;;3.53;1.27;;;17.30;99.00;;;;;;5037577;28;20039;-72
2023/05/01 10:10:17;;;;;;;7.00;1.83;;;17.40;98.50;;;;;;5005210;28;20418;-72
2023/05/01 10:12:43;;;;;;;6.05;1.20;;;17.40;97.90;;;;;;5034978;28;20045;-72
2023/05/01 10:15:09;;;;;;;5.05;1.75;;;17.40;97.60;;;;;;5017664;28;20679;-72
2023/05/01 10:17:36;;;;;;;6.40;1.85;;;17.40;97.80;;;;;;5010292;28;20234;-71
2023/05/01 10:20:02;;;;;;;5.70;1.80;;;17.50;97.90;;;;;;4996287;28;20048;-72
2023/05/01 10:22:27;;;;;;;8.07;1.70;;;17.60;97.40;;;;;;5009520;28;20055;-72
2023/05/01 10:24:53;;;;;;;6.15;1.63;;;17.60;96.10;;;;;;5016089;28;20132;-72
2023/05/01 10:27:22;;;;;;;4.60;1.55;;;17.60;96.20;;;;;;5018357;28;20410;-71
2023/05/01 10:29:52;;;;;;;3.75;1.65;;;17.60;95.60;;;;;;5035953;28;20045;-72
2023/05/01 10:32:19;;;;;;;4.75;1.80;;;17.60;95.90;;;;;;5021660;28;20056;-72
2023/05/01 10:34:50;;;;;;;8.82;2.00;;;17.60;96.20;;;;;;5039307;28;20128;-72
2023/05/01 10:37:30;;;;;;;6.45;2.10;;;17.80;95.90;;;;;;5021299;28;20072;-72
2023/05/01 10:39:55;;;;;;;7.07;1.27;;;17.80;95.30;;;;;;5042487;28;20055;-72
2023/05/01 10:42:21;;;;;;;3.03;1.48;;;17.90;95.40;;;;;;5035999;28;20226;-72
2023/05/01 10:44:48;;;;;;;4.25;1.38;;;18.00;95.30;;;;;;5028873;28;20048;-72
2023/05/01 10:47:26;;;;;;;2.83;1.30;;;18.00;94.70;;;;;;5034940;28;20099;-72
2023/05/01 10:50:03;;;;;;;5.80;1.45;;;17.90;94.10;;;;;;5018356;28;20052;-72
2023/05/01 10:52:29;;;;;;;;;;;18.00;94.20;;;;;;5013583;28;20044;-72
2023/05/01 10:55:33;;;;;;;3.45;1.10;;;18.00;93.90;;;;;;5026965;28;20005;-72
2023/05/01 10:57:59;;;;;;;2.67;0.90;;;18.10;94.40;;;;;;5028739;28;20048;-72
2023/05/01 11:00:25;;;;;;;2.80;0.88;;;18.20;94.70;;;;;;5041432;28;20073;-72
2023/05/01 11:02:50;;;;;;;4.22;1.58;;;18.30;93.30;;;;;;5040103;28;20525;-72
2023/05/01 11:05:16;;;;;;;3.45;1.30;;;18.40;93.50;;;;;;5043156;28;20056;-72
2023/05/01 11:07:41;;;;;;;4.03;1.25;;;18.40;92.70;;;;;;5036006;28;20514;-71
2023/05/01 11:10:25;;;;;;;3.25;1.00;;;18.40;92.50;;;;;;5014122;28;20032;-71
2023/05/01 11:12:51;;;;;;;3.85;1.38;;;18.50;92.00;;;;;;5018238;28;20151;-72
2023/05/01 11:15:31;;;;;;;2.90;1.30;;;18.50;92.10;;;;;;5022227;28;20037;-71
2023/05/01 11:17:58;;;;;;;3.30;0.95;;;18.40;91.80;;;;;;5006207;28;20095;-72
2023/05/01 11:20:24;;;;;;;5.15;1.08;;;18.40;92.10;;;;;;5008989;28;20084;-71
2023/05/01 11:22:51;;;;;;;4.53;1.48;;;18.40;91.70;;;;;;5015273;28;20060;-72
2023/05/01 11:25:19;;;;;;;3.85;1.27;;;18.30;91.70;;;;;;5036818;28;20083;-71
2023/05/01 11:27:56;;;;;;;1.92;1.10;;;18.30;91.50;;;;;;5017036;28;20141;-72
2023/05/01 11:30:21;;;;;;;;;;;18.30;91.10;;;;;;5015886;28;20045;-71
2023/05/01 11:32:48;;;;;;;2.60;1.17;;;18.20;91.30;;;;;;5021237;28;19921;-72
2023/05/01 11:35:22;;;;;;;3.63;1.48;;;18.20;91.60;;;;;;5026930;28;20378;-71
2023/05/01 11:37:55;;;;;;;2.95;1.40;;;18.10;91.70;;;;;;5017620;28;20475;-71
2023/05/01 11:40:26;;;;;;;2.65;1.05;;;18.10;92.30;;;;;;5018213;28;20383;-71
2023/05/01 11:43:02;;;;;;;3.60;1.60;;;18.10;92.20;;;;;;5017165;28;20053;-72
2023/05/01 11:45:29;;;;;;;5.22;1.52;;;18.10;91.80;;;;;;5017719;28;20174;-72
2023/05/01 11:47:55;;;;;;;3.45;1.38;;;18.00;91.70;;;;;;5031744;28;20060;-71
2023/05/01 11:50:21;;;;;;;1.92;1.13;;;18.00;91.70;;;;;;5022620;28;20045;-72
2023/05/01 11:52:48;;;;;;;3.65;1.35;;;17.90;91.80;;;;;;5036759;28;20072;-72
2023/05/01 11:55:15;;;;;;;4.97;1.48;;;17.90;92.00;;;;;;5016119;28;20041;-72
2023/05/01 11:57:52;;;;;;;4.82;1.30;;;17.90;91.90;;;;;;5019449;28;20067;-72
2023/05/01 12:00:36;;;;;;;2.15;1.38;;;17.90;91.90;;;;;;5039549;28;20076;-72
2023/05/01 12:03:06;;;;;;;2.35;1.10;;;17.90;91.30;;;;;;5021296;28;20411;-72
2023/05/01 12:05:35;;;;;;;3.95;1.25;;;17.80;91.50;;;;;;5010782;28;20581;-72
2023/05/01 12:08:17;;;;;;;2.45;1.48;;;17.70;91.80;;;;;;5033748;28;20407;-72
2023/05/01 12:10:46;;;;;;;2.05;0.80;;;17.70;91.50;;;;;;5025755;28;20102;-72
2023/05/01 12:13:13;;;;;;;4.07;1.35;;;17.80;91.70;;;;;;5019224;28;20044;-72
2023/05/01 12:15:40;;;;;;;;;;;17.80;91.70;;;;;;5048860;22;20421;-69
2023/05/01 12:18:06;;;;;;;1.80;1.00;;;17.70;92.30;;;;;;5022870;28;20254;-68
2023/05/01 12:20:43;;;;;;;3.97;1.70;;;17.70;92.20;;;;;;4998493;28;20407;-69
2023/05/01 12:23:12;;;;;;;5.45;1.55;;;17.70;92.40;;;;;;4988140;28;20068;-68
2023/05/01 12:25:38;;;;;;;4.40;1.80;;;17.60;92.70;;;;;;4995400;28;20410;-68
2023/05/01 12:28:17;;;;;;;3.70;1.83;;;17.50;92.90;;;;;;4995180;28;20046;-68
2023/05/01 12:30:45;;;;;;;5.45;1.70;;;17.40;93.20;;;;;;4995760;28;20045;-68
2023/05/01 12:33:15;;;;;;;4.03;1.70;;;17.40;93.30;;;;;;5004408;28;20083;-68
2023/05/01 12:35:45;;;;;;;9.80;2.10;;;17.20;93.40;;;;;;4999460;28;20045;-68
2023/05/01 12:38:19;;;;;;;5.53;1.67;;;17.20;93.50;;;;;;4981136;28;20045;-68
2023/05/01 12:40:51;;;;;;;3.80;1.88;;;17.10;93.70;;;;;;5001502;28;20129;-68
2023/05/01 12:43:21;;;;;;;8.95;1.75;;;17.00;93.60;;;;;;5011728;28;20053;-68
2023/05/01 12:45:52;;;;;;;3.28;1.73;;;16.90;93.80;;;;;;4995280;28;20045;-68
2023/05/01 12:48:18;;;;;;;6.45;2.25;;;16.90;93.90;;;;;;5012954;28;20037;-69
2023/05/01 12:50:53;;;;;;;;;;;16.90;94.20;;;;;;4997500;28;20129;-69
2023/05/01 12:53:20;;;;;;;5.70;2.50;;;16.80;94.40;;;;;;5001558;28;19917;-68
2023/05/01 12:55:47;;;;;;;4.75;1.98;;;16.80;94.50;;;;;;5001697;28;20050;-68
2023/05/01 12:58:12;;;;;;;4.05;2.00;;;16.80;94.70;;;;;;4994679;28;20463;-68